Time;durP1;ratioP1;P1;durP2;ratioP2;P2;SDS_P1;SDS_P2;PMS_P1;PMS_P2;Temp;Humidity;BMP_temperature;BMP_pressure;BME280_temperature;BME280_humidity;BME280_pressure;Samples;Min_cycle;Max_cycle;Signal;HPM_P1;HPM_P2
2022/07/16 00:02:43;;;;;;;2.23;1.97;;;14.30;1.00;;;;;;5074728;28;20184;-72
2022/07/16 00:05:08;;;;;;;2.00;1.90;;;14.30;1.00;;;;;;5074746;28;20420;-72
2022/07/16 00:07:34;;;;;;;2.47;2.27;;;14.30;1.00;;;;;;5073980;28;20174;-73
2022/07/16 00:10:00;;;;;;;2.70;2.50;;;14.30;1.00;;;;;;5075394;28;20611;-72
2022/07/16 00:12:26;;;;;;;3.20;2.90;;;14.30;1.00;;;;;;5074304;28;20167;-78
2022/07/16 00:14:52;;;;;;;4.43;4.03;;;14.30;1.00;;;;;;5074029;28;20186;-73
2022/07/16 00:17:18;;;;;;;4.30;2.80;;;14.30;1.00;;;;;;5074997;28;20474;-71
2022/07/16 00:19:43;;;;;;;6.13;3.60;;;14.30;1.00;;;;;;5075129;28;20454;-78
2022/07/16 00:22:10;;;;;;;2.47;2.20;;;14.30;1.00;;;;;;5074113;28;20623;-73
2022/07/16 00:24:36;;;;;;;2.27;2.17;;;14.40;1.00;;;;;;5074144;28;20182;-71
2022/07/16 00:27:02;;;;;;;2.27;2.17;;;14.30;1.00;;;;;;5075027;28;20386;-72
2022/07/16 00:29:28;;;;;;;2.50;2.30;;;14.30;1.00;;;;;;5073559;28;20390;-70
2022/07/16 00:31:55;;;;;;;2.50;2.30;;;14.40;1.00;;;;;;5074674;28;20445;-75
2022/07/16 00:34:21;;;;;;;5.63;2.80;;;14.40;1.00;;;;;;5074192;28;21046;-71
2022/07/16 00:36:48;;;;;;;2.50;2.33;;;14.30;1.00;;;;;;5074679;28;20433;-74
2022/07/16 00:39:15;;;;;;;2.80;2.60;;;14.30;1.00;;;;;;5073741;28;20554;-70
2022/07/16 00:41:43;;;;;;;3.33;3.03;;;14.30;17.00;;;;;;5073717;28;20542;-78
2022/07/16 00:44:12;;;;;;;4.07;3.67;;;14.30;36.60;;;;;;5073624;28;20417;-70
2022/07/16 00:46:39;;;;;;;4.00;3.57;;;14.40;82.70;;;;;;5074673;28;20411;-71
2022/07/16 00:49:05;;;;;;;2.70;2.27;;;14.40;84.00;;;;;;5074359;28;20413;-71
2022/07/16 00:51:32;;;;;;;3.20;2.90;;;14.40;91.30;;;;;;5074861;28;20425;-70
2022/07/16 00:53:58;;;;;;;4.40;2.80;;;14.40;91.90;;;;;;5073566;28;20509;-70
2022/07/16 00:56:24;;;;;;;3.00;2.27;;;14.40;98.80;;;;;;5073002;28;20448;-69
2022/07/16 00:58:51;;;;;;;3.90;2.43;;;14.30;97.60;;;;;;5073576;28;20392;-69
2022/07/16 01:01:17;;;;;;;2.70;2.47;;;14.20;99.90;;;;;;5074233;28;20415;-78
2022/07/16 01:03:43;;;;;;;9.10;2.37;;;14.20;99.90;;;;;;5072208;28;20487;-77
2022/07/16 01:06:11;;;;;;;3.17;2.87;;;14.20;99.90;;;;;;5075249;28;20455;-69
2022/07/16 01:08:41;;;;;;;2.40;2.30;;;14.20;99.90;;;;;;5074214;28;20440;-70
2022/07/16 01:11:09;;;;;;;5.13;2.20;;;14.20;99.90;;;;;;5072992;28;20424;-77
2022/07/16 01:13:37;;;;;;;2.57;2.27;;;14.20;99.90;;;;;;5073045;28;20514;-69
2022/07/16 01:16:03;;;;;;;3.83;2.10;;;14.20;99.90;;;;;;5073582;28;20402;-74
2022/07/16 01:18:30;;;;;;;2.60;2.30;;;14.20;99.90;;;;;;5073412;28;20388;-77
2022/07/16 01:20:56;;;;;;;2.63;2.43;;;14.20;99.90;;;;;;5073858;28;20466;-69
2022/07/16 01:23:23;;;;;;;3.47;2.27;;;14.10;99.90;;;;;;5073102;28;20534;-76
2022/07/16 01:25:50;;;;;;;3.30;2.53;;;14.00;99.90;;;;;;5073845;28;20228;-77
2022/07/16 01:28:16;;;;;;;2.57;2.37;;;14.00;99.90;;;;;;5073760;28;20427;-76
2022/07/16 01:30:42;;;;;;;1.77;1.63;;;14.10;99.90;;;;;;5073734;28;20506;-70
2022/07/16 01:33:44;;;;;;;2.20;2.10;;;14.10;99.90;;;;;;5072832;28;20400;-69
2022/07/16 01:36:13;;;;;;;2.50;2.03;;;14.20;99.90;;;;;;5071672;28;20379;-68
2022/07/16 01:38:42;;;;;;;3.73;2.13;;;14.20;99.90;;;;;;5072796;28;20516;-69
2022/07/16 01:41:08;;;;;;;2.77;2.50;;;14.20;99.90;;;;;;5073558;28;20417;-70
2022/07/16 01:43:34;;;;;;;2.23;2.03;;;14.20;99.90;;;;;;5071177;28;20415;-78
2022/07/16 01:46:00;;;;;;;2.40;1.87;;;14.30;99.90;;;;;;5073091;28;20405;-77
2022/07/16 01:48:26;;;;;;;2.13;1.93;;;14.30;99.90;;;;;;5073446;28;20251;-77
2022/07/16 01:50:53;;;;;;;2.37;1.97;;;14.40;99.90;;;;;;5073367;28;20635;-78
2022/07/16 01:53:20;;;;;;;2.37;2.00;;;14.30;99.90;;;;;;5072278;28;20429;-71
2022/07/16 01:55:46;;;;;;;2.90;1.70;;;14.30;99.90;;;;;;5073109;28;20436;-70
2022/07/16 01:58:13;;;;;;;1.53;1.43;;;14.30;99.90;;;;;;5073038;28;20442;-78
2022/07/16 02:00:41;;;;;;;2.60;1.77;;;14.30;99.90;;;;;;5073398;28;20417;-77
2022/07/16 02:03:07;;;;;;;5.23;2.03;;;14.40;99.90;;;;;;5071043;28;20384;-69
2022/07/16 02:05:34;;;;;;;3.40;2.10;;;14.40;99.90;;;;;;5071809;28;20515;-69
2022/07/16 02:07:59;;;;;;;1.80;1.70;;;14.40;99.90;;;;;;5073108;28;20511;-69
2022/07/16 02:10:25;;;;;;;1.83;1.70;;;14.40;99.90;;;;;;5073348;28;20532;-69
2022/07/16 02:12:51;;;;;;;2.20;1.70;;;14.50;99.90;;;;;;5071470;28;20174;-78
2022/07/16 02:15:17;;;;;;;1.60;1.50;;;14.40;99.90;;;;;;5071894;28;20284;-69
2022/07/16 02:17:42;;;;;;;2.73;1.60;;;14.50;99.90;;;;;;5071735;28;20286;-76
2022/07/16 02:20:09;;;;;;;2.23;1.63;;;14.50;99.90;;;;;;5073030;28;20524;-69
2022/07/16 02:22:35;;;;;;;4.00;1.93;;;14.50;99.90;;;;;;5072209;28;20170;-69
2022/07/16 02:25:02;;;;;;;2.03;1.67;;;14.50;99.90;;;;;;5073201;28;20431;-68
2022/07/16 02:27:27;;;;;;;1.57;1.33;;;14.50;99.90;;;;;;5073078;28;20276;-69
2022/07/16 02:29:53;;;;;;;3.07;1.80;;;14.50;99.90;;;;;;5072264;28;20463;-77
2022/07/16 02:32:19;;;;;;;1.70;1.60;;;14.40;99.90;;;;;;5072044;28;20259;-69
2022/07/16 02:34:45;;;;;;;2.13;1.87;;;14.40;99.90;;;;;;5088794;28;20273;-76
2022/07/16 02:37:10;;;;;;;2.03;1.93;;;14.40;99.90;;;;;;5093017;28;20194;-74
2022/07/16 02:39:36;;;;;;;1.63;1.53;;;14.40;99.90;;;;;;5093065;28;20174;-77
2022/07/16 02:42:02;;;;;;;2.50;2.30;;;14.40;99.90;;;;;;5092780;28;20618;-76
2022/07/16 02:44:28;;;;;;;2.70;1.73;;;14.30;99.90;;;;;;5073026;28;20709;-69
2022/07/16 02:46:53;;;;;;;1.80;1.70;;;14.30;99.90;;;;;;5072424;28;20182;-69
2022/07/16 02:49:19;;;;;;;2.50;2.30;;;14.30;99.90;;;;;;5072576;28;20231;-77
2022/07/16 02:51:44;;;;;;;1.70;1.60;;;14.30;99.90;;;;;;5072731;28;20170;-68
2022/07/16 02:54:10;;;;;;;1.40;1.30;;;14.30;99.90;;;;;;5071704;28;20201;-76
2022/07/16 02:56:36;;;;;;;1.80;1.70;;;14.30;99.90;;;;;;5075279;28;20198;-77
2022/07/16 02:59:02;;;;;;;2.50;1.73;;;14.30;99.90;;;;;;5077117;28;20170;-77
2022/07/16 03:01:27;;;;;;;1.70;1.60;;;14.30;99.90;;;;;;5076584;28;20166;-76
2022/07/16 03:03:53;;;;;;;2.40;2.10;;;14.20;99.90;;;;;;5075471;28;20198;-76
2022/07/16 03:06:19;;;;;;;4.50;2.00;;;14.20;99.90;;;;;;5075594;28;20175;-69
2022/07/16 03:08:46;;;;;;;2.30;1.60;;;14.30;99.90;;;;;;5075690;28;20166;-75
2022/07/16 03:11:11;;;;;;;2.20;1.80;;;14.30;99.90;;;;;;5076485;28;20771;-69
2022/07/16 03:13:37;;;;;;;2.93;2.10;;;14.20;99.90;;;;;;5075418;28;20424;-76
2022/07/16 03:16:03;;;;;;;1.73;1.63;;;14.20;99.90;;;;;;5076094;28;20228;-70
2022/07/16 03:18:29;;;;;;;1.60;1.50;;;14.20;99.90;;;;;;5074892;28;20202;-76
2022/07/16 03:20:55;;;;;;;2.77;2.40;;;14.20;99.90;;;;;;5076174;28;20431;-68
2022/07/16 03:23:21;;;;;;;2.07;1.93;;;14.20;99.90;;;;;;5074879;28;20200;-75
2022/07/16 03:25:47;;;;;;;2.40;2.30;;;14.20;99.90;;;;;;5075747;28;20504;-68
2022/07/16 03:28:12;;;;;;;1.87;1.60;;;14.10;99.90;;;;;;5090811;28;20212;-68
2022/07/16 03:30:38;;;;;;;2.97;2.10;;;14.10;99.90;;;;;;5096315;28;20170;-76
2022/07/16 03:33:04;;;;;;;1.77;1.67;;;14.10;99.90;;;;;;5095358;28;20173;-68
2022/07/16 03:35:30;;;;;;;2.10;2.00;;;14.20;99.90;;;;;;5096065;28;20189;-76
2022/07/16 03:40:40;;;;;;;1.97;1.87;;;14.10;99.90;;;;;;5094916;28;20188;-68
2022/07/16 03:43:06;;;;;;;3.90;1.70;;;14.00;99.90;;;;;;5094841;28;20403;-68
2022/07/16 03:45:32;;;;;;;2.10;1.90;;;14.00;99.90;;;;;;5095465;28;20431;-68
2022/07/16 03:47:58;;;;;;;3.00;1.90;;;13.90;99.90;;;;;;5095019;28;20415;-68
2022/07/16 03:50:24;;;;;;;1.50;1.40;;;14.00;99.90;;;;;;5094676;28;20437;-68
2022/07/16 03:52:49;;;;;;;3.30;1.80;;;14.00;99.90;;;;;;5094902;28;20169;-76
2022/07/16 03:55:15;;;;;;;4.07;2.20;;;13.90;99.90;;;;;;5095902;28;20519;-68
2022/07/16 03:57:42;;;;;;;5.10;2.00;;;13.90;99.90;;;;;;5078891;28;20284;-76
2022/07/16 04:00:09;;;;;;;1.67;1.57;;;13.90;99.90;;;;;;5074220;28;20158;-68
2022/07/16 04:02:35;;;;;;;2.60;1.57;;;13.80;99.90;;;;;;5074047;28;20503;-68
2022/07/16 04:05:01;;;;;;;1.70;1.60;;;13.90;99.90;;;;;;5074934;28;20550;-76
2022/07/16 04:07:27;;;;;;;1.97;1.77;;;13.90;99.90;;;;;;5074623;28;20185;-69
2022/07/16 04:09:53;;;;;;;2.83;1.90;;;13.90;99.90;;;;;;5075342;28;20523;-76
2022/07/16 04:12:25;;;;;;;9.13;2.50;;;14.00;99.90;;;;;;5078462;28;20435;-76
2022/07/16 04:14:51;;;;;;;2.53;1.60;;;14.00;99.90;;;;;;5095384;28;20647;-76
2022/07/16 04:17:17;;;;;;;2.40;1.50;;;14.10;99.90;;;;;;5095369;28;20496;-76
2022/07/16 04:19:43;;;;;;;4.70;2.23;;;14.10;99.90;;;;;;5094360;28;20386;-68
2022/07/16 04:22:08;;;;;;;3.50;3.20;;;14.00;99.90;;;;;;5094194;28;20165;-71
2022/07/16 04:24:34;;;;;;;3.30;1.77;;;14.00;99.90;;;;;;5094946;28;20530;-68
2022/07/16 04:27:00;;;;;;;2.80;1.83;;;14.10;99.90;;;;;;5094089;28;20173;-76
2022/07/16 04:29:25;;;;;;;3.00;1.70;;;14.10;99.90;;;;;;5092631;28;20231;-74
2022/07/16 04:31:51;;;;;;;2.50;2.27;;;14.00;99.90;;;;;;5095237;28;20201;-76
2022/07/16 04:34:17;;;;;;;2.40;1.73;;;14.00;99.90;;;;;;5093130;28;20204;-76
2022/07/16 04:36:42;;;;;;;1.90;1.70;;;14.00;99.90;;;;;;5095087;28;20280;-73
2022/07/16 04:39:08;;;;;;;2.10;1.53;;;14.10;99.90;;;;;;5094709;28;20572;-68
2022/07/16 04:41:34;;;;;;;2.37;1.70;;;14.10;99.90;;;;;;5094328;28;20522;-68
2022/07/16 04:43:59;;;;;;;1.80;1.70;;;14.10;99.90;;;;;;5089944;28;20190;-68
2022/07/16 04:46:25;;;;;;;1.70;1.60;;;14.10;99.90;;;;;;5074614;28;20173;-67
2022/07/16 04:48:51;;;;;;;3.57;1.50;;;14.20;99.90;;;;;;5073339;28;20174;-68
2022/07/16 04:51:16;;;;;;;1.40;1.30;;;14.20;99.90;;;;;;5074485;28;20166;-67
2022/07/16 04:53:42;;;;;;;2.33;1.93;;;14.20;99.90;;;;;;5072257;28;20186;-67
2022/07/16 04:56:08;;;;;;;1.73;1.50;;;14.10;99.90;;;;;;5074411;28;20568;-68
2022/07/16 04:58:33;;;;;;;2.73;1.90;;;14.20;99.90;;;;;;5073706;28;20221;-75
2022/07/16 05:00:59;;;;;;;4.90;2.03;;;14.10;99.90;;;;;;5087584;28;20235;-67
2022/07/16 05:03:24;;;;;;;7.70;2.10;;;14.00;99.90;;;;;;5093498;28;20173;-70
2022/07/16 05:05:50;;;;;;;2.70;1.70;;;13.90;99.90;;;;;;5094568;28;20633;-75
2022/07/16 05:08:16;;;;;;;2.23;1.77;;;13.80;99.90;;;;;;5094427;28;20196;-67
2022/07/16 05:10:42;;;;;;;3.00;1.53;;;13.80;99.90;;;;;;5093326;28;20196;-71
2022/07/16 05:13:10;;;;;;;1.53;1.30;;;13.70;99.90;;;;;;5093427;28;20162;-75
2022/07/16 05:15:36;;;;;;;5.33;1.70;;;13.70;99.90;;;;;;5091408;28;20454;-67
2022/07/16 05:18:02;;;;;;;1.97;1.77;;;13.70;99.90;;;;;;5094224;28;20444;-71
2022/07/16 05:20:28;;;;;;;2.50;1.40;;;13.70;99.90;;;;;;5093239;28;20438;-67
2022/07/16 05:22:54;;;;;;;5.93;2.60;;;13.70;99.90;;;;;;5093344;28;20486;-75
2022/07/16 05:25:20;;;;;;;4.07;1.43;;;13.70;99.90;;;;;;5094070;28;20470;-67
2022/07/16 05:27:46;;;;;;;1.93;1.63;;;13.70;99.90;;;;;;5094048;28;20432;-73
2022/07/16 05:30:12;;;;;;;2.77;1.60;;;13.60;99.90;;;;;;5092011;28;20165;-67
2022/07/16 05:32:39;;;;;;;2.90;1.50;;;13.60;99.90;;;;;;5074315;28;20916;-73
2022/07/16 05:35:05;;;;;;;1.73;1.40;;;13.60;99.90;;;;;;5071305;28;20426;-67
2022/07/16 05:37:31;;;;;;;6.47;1.63;;;13.60;99.90;;;;;;5072165;28;20881;-67
2022/07/16 05:39:57;;;;;;;3.67;1.63;;;13.60;99.90;;;;;;5073743;28;20432;-66
2022/07/16 05:42:22;;;;;;;4.63;1.63;;;13.60;99.90;;;;;;5072748;28;20167;-74
2022/07/16 05:44:48;;;;;;;3.83;1.57;;;13.60;99.90;;;;;;5073399;28;20658;-73
2022/07/16 05:47:14;;;;;;;3.50;1.23;;;13.70;99.90;;;;;;5073392;28;20174;-67
2022/07/16 05:49:39;;;;;;;2.90;1.40;;;13.70;99.90;;;;;;5073323;28;20170;-68
2022/07/16 05:52:05;;;;;;;3.03;1.10;;;13.70;99.90;;;;;;5073078;28;20538;-68
2022/07/16 05:54:31;;;;;;;1.90;1.70;;;13.70;99.90;;;;;;5071057;28;20582;-67
2022/07/16 05:56:56;;;;;;;2.57;1.77;;;13.70;99.90;;;;;;5073266;28;20193;-73
2022/07/16 05:59:22;;;;;;;1.00;0.90;;;13.70;83.40;;;;;;5073373;28;20173;-73
2022/07/16 06:01:48;;;;;;;2.83;1.50;;;13.60;78.00;;;;;;5073302;28;20162;-73
2022/07/16 06:04:13;;;;;;;3.27;1.40;;;13.60;51.40;;;;;;5071371;28;20217;-66
2022/07/16 06:06:39;;;;;;;2.70;1.50;;;13.70;35.90;;;;;;5078683;28;20177;-73
2022/07/16 06:09:05;;;;;;;1.40;1.30;;;13.80;56.10;;;;;;5084070;28;20224;-72
2022/07/16 06:11:30;;;;;;;4.90;1.43;;;13.80;36.00;;;;;;5072862;28;20296;-72
2022/07/16 06:13:56;;;;;;;5.43;1.10;;;13.80;36.00;;;;;;5071945;28;20232;-72
2022/07/16 06:16:22;;;;;;;1.70;1.37;;;13.90;44.50;;;;;;5073029;28;20178;-67
2022/07/16 06:18:48;;;;;;;1.43;1.30;;;14.00;47.80;;;;;;5086427;28;20689;-67
2022/07/16 06:21:14;;;;;;;2.23;1.30;;;14.20;36.40;;;;;;5079308;28;20412;-68
2022/07/16 06:23:39;;;;;;;1.50;1.40;;;14.30;23.70;;;;;;5072238;28;20496;-67
2022/07/16 06:26:05;;;;;;;1.90;1.40;;;14.30;29.70;;;;;;5072012;28;20221;-69
2022/07/16 06:28:31;;;;;;;1.33;1.23;;;14.40;36.70;;;;;;5074471;28;20170;-73
2022/07/16 06:30:57;;;;;;;4.07;1.87;;;14.40;17.20;;;;;;5091798;28;20161;-72
2022/07/16 06:33:22;;;;;;;5.67;1.20;;;14.50;15.90;;;;;;5090304;28;20637;-73
2022/07/16 06:35:48;;;;;;;3.63;1.80;;;14.50;1.00;;;;;;5086431;28;20181;-68
2022/07/16 06:38:14;;;;;;;3.13;1.63;;;14.60;1.00;;;;;;5072030;28;20209;-73
2022/07/16 06:40:44;;;;;;;3.47;2.20;;;14.60;1.00;;;;;;5073250;28;20383;-73
2022/07/16 06:43:10;;;;;;;2.90;1.30;;;14.70;1.00;;;;;;5092115;28;20158;-73
2022/07/16 06:45:36;;;;;;;3.03;1.50;;;14.70;1.00;;;;;;5090981;28;20476;-71
2022/07/16 06:48:02;;;;;;;2.50;1.10;;;14.70;1.00;;;;;;5075742;28;20448;-71
2022/07/16 06:50:28;;;;;;;1.80;1.20;;;14.70;1.00;;;;;;5070943;28;20170;-73
2022/07/16 06:52:53;;;;;;;1.67;1.40;;;14.70;1.00;;;;;;5084385;28;20398;-74
2022/07/16 06:55:19;;;;;;;3.47;1.50;;;14.70;1.00;;;;;;5083742;28;20232;-73
2022/07/16 06:57:45;;;;;;;3.50;1.77;;;14.60;1.00;;;;;;5076704;28;20418;-72
2022/07/16 07:00:11;;;;;;;3.33;1.87;;;14.60;1.00;;;;;;5078238;28;20581;-68
2022/07/16 07:02:37;;;;;;;1.77;1.33;;;14.60;1.00;;;;;;5075360;28;20706;-68
2022/07/16 07:05:03;;;;;;;3.27;1.30;;;14.60;1.00;;;;;;5073932;28;20440;-73
2022/07/16 07:07:29;;;;;;;1.33;1.03;;;14.60;1.00;;;;;;5072190;28;20611;-67
2022/07/16 07:09:55;;;;;;;4.03;1.20;;;14.80;1.00;;;;;;5072180;28;20511;-73
2022/07/16 07:12:21;;;;;;;7.60;1.50;;;14.90;1.00;;;;;;5072537;28;20228;-73
2022/07/16 07:14:47;;;;;;;4.60;1.50;;;15.10;1.00;;;;;;5072406;28;20186;-67
2022/07/16 07:17:12;;;;;;;3.50;1.83;;;15.20;1.00;;;;;;5073451;28;20244;-68
2022/07/16 07:19:38;;;;;;;9.37;1.20;;;15.20;99.90;;;;;;5079977;28;20424;-67
2022/07/16 07:22:04;;;;;;;5.27;1.73;;;15.10;99.90;;;;;;5073632;28;20194;-68
2022/07/16 07:24:29;;;;;;;2.07;1.70;;;15.00;99.90;;;;;;5075681;28;20193;-69
2022/07/16 07:26:55;;;;;;;2.70;1.33;;;14.90;99.90;;;;;;5071534;28;20171;-68
2022/07/16 07:29:21;;;;;;;1.87;1.40;;;15.00;99.90;;;;;;5073664;28;20538;-74
2022/07/16 07:31:46;;;;;;;3.37;1.57;;;15.10;99.90;;;;;;5092094;28;20249;-73
2022/07/16 07:34:12;;;;;;;5.03;1.57;;;15.00;99.90;;;;;;5087271;28;20189;-73
2022/07/16 07:36:38;;;;;;;2.17;1.50;;;15.10;99.90;;;;;;5070870;28;20281;-66
2022/07/16 07:39:03;;;;;;;10.43;1.33;;;15.30;99.90;;;;;;5080380;28;20166;-66
2022/07/16 07:41:29;;;;;;;1.80;1.13;;;15.50;99.90;;;;;;5072126;28;20163;-66
2022/07/16 07:43:55;;;;;;;1.30;1.03;;;15.60;99.90;;;;;;5073308;28;20178;-72
2022/07/16 07:46:20;;;;;;;1.10;0.90;;;15.70;99.90;;;;;;5074319;28;20173;-72
2022/07/16 07:48:46;;;;;;;2.47;1.43;;;15.80;99.90;;;;;;5075268;28;20202;-67
2022/07/16 07:51:12;;;;;;;1.63;1.00;;;15.80;99.90;;;;;;5075899;28;20167;-72
2022/07/16 07:53:38;;;;;;;3.10;1.27;;;16.00;99.90;;;;;;5074716;28;20419;-66
2022/07/16 07:56:04;;;;;;;3.03;1.27;;;16.00;99.90;;;;;;5075590;28;20177;-70
2022/07/16 07:58:30;;;;;;;5.00;1.60;;;16.00;99.90;;;;;;5074215;28;20197;-73
2022/07/16 08:00:56;;;;;;;6.20;1.37;;;16.00;99.90;;;;;;5074232;28;20416;-67
2022/07/16 08:03:22;;;;;;;2.70;1.20;;;16.00;99.90;;;;;;5074336;28;20401;-67
2022/07/16 08:05:48;;;;;;;1.50;1.20;;;16.00;99.90;;;;;;5087432;28;20427;-73
2022/07/16 08:08:14;;;;;;;2.40;1.43;;;15.90;99.90;;;;;;5095637;28;20188;-67
2022/07/16 08:10:40;;;;;;;1.00;0.90;;;16.10;99.90;;;;;;5095473;28;20899;-67
2022/07/16 08:13:05;;;;;;;2.13;1.50;;;16.10;99.90;;;;;;5094613;28;20169;-67
2022/07/16 08:15:31;;;;;;;7.90;1.00;;;16.30;99.90;;;;;;5095420;28;20185;-73
2022/07/16 08:17:57;;;;;;;3.40;1.13;;;16.50;99.90;;;;;;5095485;28;20204;-73
2022/07/16 08:20:23;;;;;;;4.60;1.47;;;16.40;99.90;;;;;;5092974;28;20915;-68
2022/07/16 08:22:49;;;;;;;3.40;1.13;;;16.40;99.90;;;;;;5072799;28;20669;-67
2022/07/16 08:27:59;;;;;;;3.57;1.00;;;16.20;99.90;;;;;;5075107;28;20649;-73
2022/07/16 08:30:25;;;;;;;3.00;1.53;;;16.20;99.90;;;;;;5074998;28;20404;-67
2022/07/16 08:32:51;;;;;;;3.47;1.13;;;16.40;99.90;;;;;;5073986;28;20170;-67
2022/07/16 08:35:17;;;;;;;1.33;1.20;;;16.60;99.90;;;;;;5074834;28;20182;-73
2022/07/16 08:37:44;;;;;;;6.43;1.30;;;16.80;97.90;;;;;;5073957;28;20851;-67
2022/07/16 08:40:19;;;;;;;2.27;1.20;;;16.80;94.60;;;;;;5073926;28;20924;-73
2022/07/16 08:42:45;;;;;;;2.53;1.50;;;17.00;94.60;;;;;;5072559;28;20408;-68
2022/07/16 08:45:13;;;;;;;2.53;1.03;;;17.20;94.60;;;;;;5074634;28;20468;-73
2022/07/16 08:47:39;;;;;;;8.73;1.10;;;17.40;94.80;;;;;;5074613;28;20828;-67
2022/07/16 08:50:08;;;;;;;2.50;1.43;;;17.50;91.50;;;;;;5073317;28;20405;-73
2022/07/16 08:52:37;;;;;;;3.23;1.03;;;17.40;83.10;;;;;;5073810;28;20400;-74
2022/07/16 08:55:04;;;;;;;1.83;1.10;;;17.10;76.70;;;;;;5091878;28;20462;-73
2022/07/16 08:57:31;;;;;;;2.10;1.40;;;17.00;76.00;;;;;;5093566;28;20893;-73
2022/07/16 08:59:57;;;;;;;2.50;1.03;;;16.90;73.60;;;;;;5094830;28;20392;-67
2022/07/16 09:02:23;;;;;;;2.10;1.27;;;17.00;81.40;;;;;;5093644;28;20449;-68
2022/07/16 09:04:48;;;;;;;5.90;1.17;;;17.10;74.90;;;;;;5094394;28;20252;-73
2022/07/16 09:07:16;;;;;;;2.60;0.90;;;17.40;88.80;;;;;;5094433;28;20165;-68
2022/07/16 09:09:42;;;;;;;2.43;1.23;;;17.50;72.50;;;;;;5089193;28;20178;-68
2022/07/16 09:12:07;;;;;;;2.93;1.17;;;17.80;63.00;;;;;;5073609;28;20442;-68
2022/07/16 09:14:33;;;;;;;4.33;1.43;;;18.00;62.50;;;;;;5072718;28;20822;-74
2022/07/16 09:17:00;;;;;;;3.23;0.90;;;18.20;57.80;;;;;;5073892;28;20638;-74
2022/07/16 09:19:28;;;;;;;4.00;1.70;;;18.30;62.00;;;;;;5073784;28;20400;-73
2022/07/16 09:22:12;;;;;;;4.07;1.03;;;18.60;51.30;;;;;;5072729;28;20867;-73
2022/07/16 09:24:41;;;;;;;5.33;1.00;;;18.70;49.60;;;;;;5074018;28;20762;-69
2022/07/16 09:27:17;;;;;;;1.70;0.80;;;18.80;41.20;;;;;;5087364;28;21081;-73
2022/07/16 09:29:58;;;;;;;5.27;0.90;;;19.00;20.90;;;;;;5093609;28;20400;-73
2022/07/16 09:32:34;;;;;;;4.40;1.07;;;18.80;23.00;;;;;;5092778;28;20490;-75
2022/07/16 09:35:16;;;;;;;3.83;1.57;;;18.60;14.40;;;;;;5093887;28;20419;-74
2022/07/16 09:37:55;;;;;;;3.90;1.17;;;18.60;14.30;;;;;;5093618;28;20525;-70
2022/07/16 09:40:34;;;;;;;1.70;1.27;;;18.90;13.30;;;;;;5073635;28;20396;-67
2022/07/16 09:43:02;;;;;;;3.83;0.90;;;19.20;10.90;;;;;;5072665;28;20792;-67
2022/07/16 09:45:28;;;;;;;1.40;0.80;;;19.50;12.00;;;;;;5073428;28;20465;-74
2022/07/16 09:47:54;;;;;;;3.33;0.93;;;19.50;1.00;;;;;;5073581;28;20400;-67
2022/07/16 09:50:21;;;;;;;2.20;0.70;;;19.50;3.10;;;;;;5072699;28;21219;-73
2022/07/16 09:52:46;;;;;;;4.00;0.90;;;19.40;2.90;;;;;;5082614;28;20412;-67
2022/07/16 09:55:12;;;;;;;4.70;1.63;;;19.10;1.00;;;;;;5093682;28;20481;-68
2022/07/16 09:57:40;;;;;;;5.00;1.03;;;19.20;1.00;;;;;;5093346;28;20193;-68
2022/07/16 10:00:09;;;;;;;1.67;0.97;;;19.30;1.00;;;;;;5093637;28;20166;-73
2022/07/16 10:02:35;;;;;;;3.50;1.50;;;19.30;1.00;;;;;;5092781;28;20907;-74
2022/07/16 10:05:00;;;;;;;2.47;1.03;;;19.20;1.00;;;;;;5091582;28;20467;-74
2022/07/16 10:07:26;;;;;;;2.80;1.27;;;19.40;1.00;;;;;;5092592;28;20170;-73
2022/07/16 10:09:52;;;;;;;2.60;0.90;;;19.60;1.00;;;;;;5091838;28;20186;-75
2022/07/16 10:12:20;;;;;;;4.60;1.37;;;19.90;1.00;;;;;;5091138;28;20169;-67
2022/07/16 10:14:54;;;;;;;1.17;0.80;;;19.50;1.00;;;;;;5093270;28;20690;-68
2022/07/16 10:17:22;;;;;;;1.93;0.80;;;19.70;1.00;;;;;;5093457;28;20451;-74
2022/07/16 10:20:00;;;;;;;1.97;1.00;;;20.40;1.00;;;;;;5093180;28;20403;-69
2022/07/16 10:22:55;;;;;;;3.57;1.63;;;21.20;1.00;;;;;;5092319;28;20403;-68
2022/07/16 10:25:26;;;;;;;2.00;1.10;;;21.70;1.00;;;;;;5062874;28;20540;-74
2022/07/16 10:27:53;;;;;;;1.33;0.80;;;21.90;1.00;;;;;;5070884;28;20973;-68
2022/07/16 10:30:26;;;;;;;2.43;0.80;;;21.60;1.00;;;;;;5072971;28;20400;-74
2022/07/16 10:33:12;;;;;;;2.20;1.30;;;21.30;1.00;;;;;;5072088;28;20411;-69
2022/07/16 10:35:48;;;;;;;1.80;0.83;;;20.80;1.00;;;;;;5072947;28;20450;-68
2022/07/16 10:38:23;;;;;;;2.63;1.27;;;20.40;1.00;;;;;;5071571;28;20455;-68
2022/07/16 10:41:08;;;;;;;4.50;1.13;;;20.90;1.00;;;;;;5073045;28;20424;-69
2022/07/16 10:43:35;;;;;;;2.67;0.77;;;21.50;1.00;;;;;;5071927;28;20428;-75
2022/07/16 10:46:04;;;;;;;1.87;1.10;;;22.10;1.00;;;;;;5071776;28;20412;-72
2022/07/16 10:48:37;;;;;;;2.90;0.93;;;22.60;1.00;;;;;;5072833;28;20893;-75
2022/07/16 10:51:28;;;;;;;2.43;1.10;;;22.40;1.00;;;;;;5072827;28;20404;-68
2022/07/16 10:53:57;;;;;;;4.13;1.30;;;22.30;1.00;;;;;;5068871;28;20487;-74
2022/07/16 10:56:33;;;;;;;3.37;1.13;;;22.40;1.00;;;;;;5073893;28;20527;-75
2022/07/16 10:58:59;;;;;;;5.80;1.10;;;22.80;1.00;;;;;;5092923;28;20411;-75
2022/07/16 11:01:25;;;;;;;5.33;0.93;;;22.80;1.00;;;;;;5091604;28;20833;-71
2022/07/16 11:03:51;;;;;;;6.50;1.30;;;22.30;1.00;;;;;;5091475;28;20189;-74
2022/07/16 11:06:21;;;;;;;1.50;0.90;;;21.80;1.00;;;;;;5091948;28;20409;-68
2022/07/16 11:08:51;;;;;;;1.97;1.00;;;21.40;1.00;;;;;;5091600;28;20404;-73
2022/07/16 11:11:17;;;;;;;8.50;1.10;;;21.30;1.00;;;;;;5091483;28;20423;-75
2022/07/16 11:13:43;;;;;;;2.70;1.20;;;21.40;1.00;;;;;;5090465;28;20476;-72
2022/07/16 11:16:09;;;;;;;4.67;1.50;;;22.30;1.00;;;;;;5091365;28;20510;-68
2022/07/16 11:18:36;;;;;;;6.27;1.77;;;22.90;1.00;;;;;;5096736;28;20243;-75
2022/07/16 11:21:06;;;;;;;1.67;0.80;;;23.50;1.00;;;;;;5096595;28;20396;-75
2022/07/16 11:23:48;;;;;;;5.43;1.10;;;23.80;1.00;;;;;;5093956;28;20400;-69
2022/07/16 11:26:13;;;;;;;4.80;1.10;;;23.50;1.00;;;;;;5095949;28;20494;-69
2022/07/16 11:29:09;;;;;;;3.63;0.80;;;22.80;1.00;;;;;;5089012;28;20564;-68
2022/07/16 11:31:36;;;;;;;7.10;1.20;;;22.20;1.00;;;;;;5063067;28;20182;-75
2022/07/16 11:34:08;;;;;;;5.20;0.90;;;21.70;1.00;;;;;;5074135;28;20485;-73
2022/07/16 11:36:39;;;;;;;1.77;0.90;;;21.40;1.00;;;;;;5075927;28;20914;-74
2022/07/16 11:39:07;;;;;;;2.43;1.20;;;21.30;1.00;;;;;;5074630;28;20506;-68
2022/07/16 11:41:35;;;;;;;1.47;1.33;;;22.20;1.00;;;;;;5074754;28;20857;-68
2022/07/16 11:44:12;;;;;;;4.30;1.17;;;22.90;1.00;;;;;;5073350;28;20856;-75
2022/07/16 11:46:43;;;;;;;2.70;0.97;;;23.80;1.00;;;;;;5076051;28;20942;-68
2022/07/16 11:49:10;;;;;;;2.60;1.20;;;23.90;1.00;;;;;;5075771;28;20435;-69
2022/07/16 11:51:41;;;;;;;2.43;1.00;;;23.60;1.00;;;;;;5075720;28;20765;-69
2022/07/16 11:54:07;;;;;;;1.87;1.00;;;23.50;1.00;;;;;;5074687;28;20412;-69
2022/07/16 11:56:35;;;;;;;6.83;0.97;;;22.90;1.00;;;;;;5075546;28;20951;-69
2022/07/16 11:59:02;;;;;;;3.33;1.60;;;22.60;1.00;;;;;;5075653;28;20393;-69
2022/07/16 12:01:35;;;;;;;2.37;0.93;;;22.50;1.00;;;;;;5083869;28;20784;-68
2022/07/16 12:04:00;;;;;;;1.30;0.83;;;22.60;1.00;;;;;;5092619;28;20424;-76
2022/07/16 12:06:26;;;;;;;1.93;1.00;;;22.40;1.00;;;;;;5095713;28;20895;-69
2022/07/16 12:08:54;;;;;;;2.33;1.10;;;22.00;1.00;;;;;;5095566;28;20240;-75
2022/07/16 12:11:19;;;;;;;5.13;1.23;;;21.90;1.00;;;;;;5094280;28;20216;-69
2022/07/16 12:13:53;;;;;;;2.50;0.90;;;21.40;1.00;;;;;;5094518;28;20452;-75
2022/07/16 12:16:21;;;;;;;6.83;1.03;;;21.30;1.00;;;;;;5095490;28;20189;-68
2022/07/16 12:19:12;;;;;;;3.43;0.97;;;22.20;1.00;;;;;;5075469;28;20468;-68
2022/07/16 12:21:39;;;;;;;3.93;0.70;;;23.60;1.00;;;;;;5062564;28;20823;-69
2022/07/16 12:24:06;;;;;;;2.33;0.90;;;24.80;1.00;;;;;;5073835;28;20926;-68
2022/07/16 12:26:36;;;;;;;11.70;0.93;;;25.40;1.00;;;;;;5075208;28;20401;-69
2022/07/16 12:29:07;;;;;;;2.10;1.20;;;24.60;1.00;;;;;;5074292;28;20776;-73
2022/07/16 12:31:33;;;;;;;9.43;3.10;;;23.40;1.00;;;;;;5074972;28;20737;-69
2022/07/16 12:34:01;;;;;;;1.73;0.90;;;22.50;1.00;;;;;;5074759;28;20479;-74
2022/07/16 12:36:35;;;;;;;5.63;0.77;;;22.40;1.00;;;;;;5074946;28;20476;-74
2022/07/16 12:39:07;;;;;;;2.50;0.90;;;22.00;1.00;;;;;;5088840;28;20423;-73
2022/07/16 12:41:45;;;;;;;4.80;1.20;;;22.20;1.00;;;;;;5074135;28;20429;-68
2022/07/16 12:44:12;;;;;;;4.17;0.97;;;22.80;1.00;;;;;;5073725;28;20412;-68
2022/07/16 12:46:44;;;;;;;2.50;1.20;;;23.50;1.00;;;;;;5074795;28;20885;-74
2022/07/16 12:49:17;;;;;;;3.47;1.00;;;23.70;1.00;;;;;;5074638;28;20429;-74
2022/07/16 12:51:45;;;;;;;2.17;1.73;;;23.10;1.00;;;;;;5074533;28;20393;-70
2022/07/16 12:54:13;;;;;;;2.47;0.90;;;22.70;1.00;;;;;;5092773;28;20423;-75
2022/07/16 12:59:25;;;;;;;1.70;0.80;;;21.40;1.00;;;;;;5094971;28;20449;-70
2022/07/16 13:01:51;;;;;;;1.13;0.77;;;20.90;1.00;;;;;;5094746;28;20396;-68